sensor_id;sensor_type;location;lat;lon;timestamp;temperature;humidity
20102;DHT22;10210;52.284;9.892;2023-08-07T00:00:43;19.50;99.90
20102;DHT22;10210;52.284;9.892;2023-08-07T00:03:09;19.50;99.90
20102;DHT22;10210;52.284;9.892;2023-08-07T00:05:36;19.50;99.90
20102;DHT22;10210;52.284;9.892;2023-08-07T00:08:02;19.50;99.90
20102;DHT22;10210;52.284;9.892;2023-08-07T00:10:28;19.50;99.90
20102;DHT22;10210;52.284;9.892;2023-08-07T00:12:53;19.50;99.90
20102;DHT22;10210;52.284;9.892;2023-08-07T00:15:19;19.50;99.90
20102;DHT22;10210;52.284;9.892;2023-08-07T00:17:45;19.40;99.90
20102;DHT22;10210;52.284;9.892;2023-08-07T00:20:11;19.50;99.90
20102;DHT22;10210;52.284;9.892;2023-08-07T00:22:37;19.50;99.90
20102;DHT22;10210;52.284;9.892;2023-08-07T00:25:02;19.50;99.90
20102;DHT22;10210;52.284;9.892;2023-08-07T00:27:28;19.50;99.90
20102;DHT22;10210;52.284;9.892;2023-08-07T00:29:54;19.50;99.90
20102;DHT22;10210;52.284;9.892;2023-08-07T00:32:20;19.50;99.90
20102;DHT22;10210;52.284;9.892;2023-08-07T00:34:46;19.50;99.90
20102;DHT22;10210;52.284;9.892;2023-08-07T00:37:12;19.40;99.90
20102;DHT22;10210;52.284;9.892;2023-08-07T00:39:37;19.40;99.90
20102;DHT22;10210;52.284;9.892;2023-08-07T00:42:03;19.40;99.90
20102;DHT22;10210;52.284;9.892;2023-08-07T00:44:29;19.50;99.90
20102;DHT22;10210;52.284;9.892;2023-08-07T00:46:54;19.50;99.90
20102;DHT22;10210;52.284;9.892;2023-08-07T00:49:20;19.40;99.90
20102;DHT22;10210;52.284;9.892;2023-08-07T00:51:47;19.40;99.90
20102;DHT22;10210;52.284;9.892;2023-08-07T00:54:15;19.40;99.90
20102;DHT22;10210;52.284;9.892;2023-08-07T00:56:43;19.50;99.90
20102;DHT22;10210;52.284;9.892;2023-08-07T00:59:10;19.40;99.90
20102;DHT22;10210;52.284;9.892;2023-08-07T01:01:36;19.40;99.90
20102;DHT22;10210;52.284;9.892;2023-08-07T01:04:02;19.30;99.90
20102;DHT22;10210;52.284;9.892;2023-08-07T01:06:28;19.30;99.90
20102;DHT22;10210;52.284;9.892;2023-08-07T01:08:54;19.30;99.90
20102;DHT22;10210;52.284;9.892;2023-08-07T01:11:44;19.20;99.90
20102;DHT22;10210;52.284;9.892;2023-08-07T01:14:33;19.20;99.90
20102;DHT22;10210;52.284;9.892;2023-08-07T01:17:09;19.20;99.90
20102;DHT22;10210;52.284;9.892;2023-08-07T01:19:37;19.10;99.90
20102;DHT22;10210;52.284;9.892;2023-08-07T01:22:11;19.10;99.90
20102;DHT22;10210;52.284;9.892;2023-08-07T01:24:40;19.00;99.90
20102;DHT22;10210;52.284;9.892;2023-08-07T01:35:53;18.90;99.90
20102;DHT22;10210;52.284;9.892;2023-08-07T01:38:22;18.90;99.90
20102;DHT22;10210;52.284;9.892;2023-08-07T01:40:51;18.90;99.90
20102;DHT22;10210;52.284;9.892;2023-08-07T01:43:18;18.80;99.90
20102;DHT22;10210;52.284;9.892;2023-08-07T01:45:44;18.80;99.90
20102;DHT22;10210;52.284;9.892;2023-08-07T01:48:10;18.80;99.90
20102;DHT22;10210;52.284;9.892;2023-08-07T01:50:38;18.80;99.90
20102;DHT22;10210;52.284;9.892;2023-08-07T01:53:04;18.80;99.90
20102;DHT22;10210;52.284;9.892;2023-08-07T01:55:30;18.80;99.90
20102;DHT22;10210;52.284;9.892;2023-08-07T01:57:56;18.70;99.90
20102;DHT22;10210;52.284;9.892;2023-08-07T02:00:23;18.70;99.90
20102;DHT22;10210;52.284;9.892;2023-08-07T02:02:49;18.70;99.90
20102;DHT22;10210;52.284;9.892;2023-08-07T02:05:15;18.70;99.90
20102;DHT22;10210;52.284;9.892;2023-08-07T02:07:41;18.70;99.90
20102;DHT22;10210;52.284;9.892;2023-08-07T02:10:08;18.60;99.90
20102;DHT22;10210;52.284;9.892;2023-08-07T02:12:34;18.60;99.90
20102;DHT22;10210;52.284;9.892;2023-08-07T02:15:00;18.60;99.90
20102;DHT22;10210;52.284;9.892;2023-08-07T02:17:27;18.60;99.90
20102;DHT22;10210;52.284;9.892;2023-08-07T02:19:55;18.60;99.90
20102;DHT22;10210;52.284;9.892;2023-08-07T02:22:21;18.60;99.90
20102;DHT22;10210;52.284;9.892;2023-08-07T02:24:48;18.50;99.90
20102;DHT22;10210;52.284;9.892;2023-08-07T02:27:13;18.50;99.90
20102;DHT22;10210;52.284;9.892;2023-08-07T02:29:39;18.50;99.90
20102;DHT22;10210;52.284;9.892;2023-08-07T02:32:05;18.50;99.90
20102;DHT22;10210;52.284;9.892;2023-08-07T02:34:31;18.50;99.90
20102;DHT22;10210;52.284;9.892;2023-08-07T02:36:58;18.40;99.90
20102;DHT22;10210;52.284;9.892;2023-08-07T02:39:24;18.40;99.90
20102;DHT22;10210;52.284;9.892;2023-08-07T02:41:50;18.40;99.90
20102;DHT22;10210;52.284;9.892;2023-08-07T02:44:16;18.40;99.90
20102;DHT22;10210;52.284;9.892;2023-08-07T02:46:46;18.40;99.90
20102;DHT22;10210;52.284;9.892;2023-08-07T02:49:11;18.30;99.90
20102;DHT22;10210;52.284;9.892;2023-08-07T02:51:37;18.30;99.90
20102;DHT22;10210;52.284;9.892;2023-08-07T02:54:03;18.30;99.90
20102;DHT22;10210;52.284;9.892;2023-08-07T02:56:28;18.30;99.90
20102;DHT22;10210;52.284;9.892;2023-08-07T02:58:54;18.30;99.90
20102;DHT22;10210;52.284;9.892;2023-08-07T03:01:20;18.30;99.90
20102;DHT22;10210;52.284;9.892;2023-08-07T03:03:46;18.30;99.90
20102;DHT22;10210;52.284;9.892;2023-08-07T03:06:12;18.30;99.90
20102;DHT22;10210;52.284;9.892;2023-08-07T03:08:38;18.30;99.90
20102;DHT22;10210;52.284;9.892;2023-08-07T03:11:04;18.30;99.90
20102;DHT22;10210;52.284;9.892;2023-08-07T03:13:29;18.30;99.90
20102;DHT22;10210;52.284;9.892;2023-08-07T03:16:05;18.30;99.90
20102;DHT22;10210;52.284;9.892;2023-08-07T03:18:33;18.20;99.90
20102;DHT22;10210;52.284;9.892;2023-08-07T03:20:58;18.20;99.90
20102;DHT22;10210;52.284;9.892;2023-08-07T03:23:25;18.20;99.90
20102;DHT22;10210;52.284;9.892;2023-08-07T03:26:08;18.20;99.90
20102;DHT22;10210;52.284;9.892;2023-08-07T03:28:35;18.20;99.90
20102;DHT22;10210;52.284;9.892;2023-08-07T03:31:02;18.20;99.90
20102;DHT22;10210;52.284;9.892;2023-08-07T03:33:28;18.20;99.90
20102;DHT22;10210;52.284;9.892;2023-08-07T03:35:54;18.20;99.90
20102;DHT22;10210;52.284;9.892;2023-08-07T03:38:19;18.20;99.90
20102;DHT22;10210;52.284;9.892;2023-08-07T03:40:45;18.20;99.90
20102;DHT22;10210;52.284;9.892;2023-08-07T03:43:11;18.20;99.90
20102;DHT22;10210;52.284;9.892;2023-08-07T03:45:37;18.20;99.90
20102;DHT22;10210;52.284;9.892;2023-08-07T03:48:03;18.20;99.90
20102;DHT22;10210;52.284;9.892;2023-08-07T03:50:29;18.20;99.90
20102;DHT22;10210;52.284;9.892;2023-08-07T03:52:56;18.20;99.90
20102;DHT22;10210;52.284;9.892;2023-08-07T03:55:22;18.20;99.90
20102;DHT22;10210;52.284;9.892;2023-08-07T03:57:48;18.20;99.90
20102;DHT22;10210;52.284;9.892;2023-08-07T04:00:14;18.20;99.90
20102;DHT22;10210;52.284;9.892;2023-08-07T04:02:40;18.20;99.90
20102;DHT22;10210;52.284;9.892;2023-08-07T04:05:06;18.20;99.90
20102;DHT22;10210;52.284;9.892;2023-08-07T04:07:32;18.30;99.90
20102;DHT22;10210;52.284;9.892;2023-08-07T04:09:58;18.20;99.90
20102;DHT22;10210;52.284;9.892;2023-08-07T04:12:23;18.20;99.90
20102;DHT22;10210;52.284;9.892;2023-08-07T04:14:49;18.20;99.90
20102;DHT22;10210;52.284;9.892;2023-08-07T04:17:15;18.20;99.90
20102;DHT22;10210;52.284;9.892;2023-08-07T04:19:41;18.20;99.90
20102;DHT22;10210;52.284;9.892;2023-08-07T04:22:07;18.20;99.90
20102;DHT22;10210;52.284;9.892;2023-08-07T04:24:33;18.20;99.90
20102;DHT22;10210;52.284;9.892;2023-08-07T04:26:58;18.20;99.90
20102;DHT22;10210;52.284;9.892;2023-08-07T04:29:24;18.20;99.90
20102;DHT22;10210;52.284;9.892;2023-08-07T04:31:50;18.20;99.90
20102;DHT22;10210;52.284;9.892;2023-08-07T04:34:16;18.20;99.90
20102;DHT22;10210;52.284;9.892;2023-08-07T04:36:42;18.30;99.90
20102;DHT22;10210;52.284;9.892;2023-08-07T04:39:07;18.20;99.90
20102;DHT22;10210;52.284;9.892;2023-08-07T04:41:33;18.20;99.90
20102;DHT22;10210;52.284;9.892;2023-08-07T04:43:59;18.30;99.90
20102;DHT22;10210;52.284;9.892;2023-08-07T04:46:25;18.30;99.90
20102;DHT22;10210;52.284;9.892;2023-08-07T04:48:51;18.20;99.90
20102;DHT22;10210;52.284;9.892;2023-08-07T04:51:16;18.30;99.90
20102;DHT22;10210;52.284;9.892;2023-08-07T04:53:42;18.30;99.90
20102;DHT22;10210;52.284;9.892;2023-08-07T04:56:08;18.30;99.90
20102;DHT22;10210;52.284;9.892;2023-08-07T04:58:33;18.30;99.90
20102;DHT22;10210;52.284;9.892;2023-08-07T05:00:59;18.30;99.90
20102;DHT22;10210;52.284;9.892;2023-08-07T05:03:25;18.30;99.90
20102;DHT22;10210;52.284;9.892;2023-08-07T05:06:02;18.30;99.90
20102;DHT22;10210;52.284;9.892;2023-08-07T05:08:27;18.30;99.90
20102;DHT22;10210;52.284;9.892;2023-08-07T05:10:53;18.30;99.90
20102;DHT22;10210;52.284;9.892;2023-08-07T05:13:19;18.30;99.90
20102;DHT22;10210;52.284;9.892;2023-08-07T05:15:47;18.30;99.90
20102;DHT22;10210;52.284;9.892;2023-08-07T05:18:15;18.30;99.90
20102;DHT22;10210;52.284;9.892;2023-08-07T05:20:41;18.30;99.90
20102;DHT22;10210;52.284;9.892;2023-08-07T05:23:07;18.30;99.90
20102;DHT22;10210;52.284;9.892;2023-08-07T05:25:33;18.30;99.90
20102;DHT22;10210;52.284;9.892;2023-08-07T05:27:59;18.30;99.90
20102;DHT22;10210;52.284;9.892;2023-08-07T05:30:25;18.30;99.90
20102;DHT22;10210;52.284;9.892;2023-08-07T05:32:50;18.30;99.90
20102;DHT22;10210;52.284;9.892;2023-08-07T05:35:16;18.30;99.90
20102;DHT22;10210;52.284;9.892;2023-08-07T05:37:42;18.30;99.90
20102;DHT22;10210;52.284;9.892;2023-08-07T05:40:08;18.30;99.90
20102;DHT22;10210;52.284;9.892;2023-08-07T05:42:37;18.30;99.90
20102;DHT22;10210;52.284;9.892;2023-08-07T05:45:03;18.30;99.90
20102;DHT22;10210;52.284;9.892;2023-08-07T05:47:29;18.30;99.90
20102;DHT22;10210;52.284;9.892;2023-08-07T05:49:55;18.30;99.90
20102;DHT22;10210;52.284;9.892;2023-08-07T05:52:21;18.30;99.90
20102;DHT22;10210;52.284;9.892;2023-08-07T05:54:47;18.30;99.90
20102;DHT22;10210;52.284;9.892;2023-08-07T05:57:13;18.30;99.90
20102;DHT22;10210;52.284;9.892;2023-08-07T05:59:38;18.30;99.90
20102;DHT22;10210;52.284;9.892;2023-08-07T06:02:06;18.40;99.90
20102;DHT22;10210;52.284;9.892;2023-08-07T06:04:31;18.40;99.90
20102;DHT22;10210;52.284;9.892;2023-08-07T06:06:57;18.40;99.90
20102;DHT22;10210;52.284;9.892;2023-08-07T06:09:23;18.40;99.90
20102;DHT22;10210;52.284;9.892;2023-08-07T06:11:49;18.50;99.90
20102;DHT22;10210;52.284;9.892;2023-08-07T06:14:15;18.40;99.90
20102;DHT22;10210;52.284;9.892;2023-08-07T06:16:40;18.50;99.90
20102;DHT22;10210;52.284;9.892;2023-08-07T06:19:06;18.50;99.90
20102;DHT22;10210;52.284;9.892;2023-08-07T06:21:32;18.50;99.90
20102;DHT22;10210;52.284;9.892;2023-08-07T06:23:58;18.50;99.90
20102;DHT22;10210;52.284;9.892;2023-08-07T06:26:24;18.50;99.90
20102;DHT22;10210;52.284;9.892;2023-08-07T06:28:49;18.50;99.90
20102;DHT22;10210;52.284;9.892;2023-08-07T06:31:15;18.50;99.90
20102;DHT22;10210;52.284;9.892;2023-08-07T06:33:41;18.50;99.90
20102;DHT22;10210;52.284;9.892;2023-08-07T06:36:07;18.60;99.90
20102;DHT22;10210;52.284;9.892;2023-08-07T06:38:36;18.60;99.90
20102;DHT22;10210;52.284;9.892;2023-08-07T06:41:02;18.60;99.90
20102;DHT22;10210;52.284;9.892;2023-08-07T06:43:28;18.60;99.90
20102;DHT22;10210;52.284;9.892;2023-08-07T06:45:55;18.70;99.90
20102;DHT22;10210;52.284;9.892;2023-08-07T06:48:22;18.60;99.90
20102;DHT22;10210;52.284;9.892;2023-08-07T06:50:51;18.70;99.90
20102;DHT22;10210;52.284;9.892;2023-08-07T06:53:19;18.70;99.90
20102;DHT22;10210;52.284;9.892;2023-08-07T06:55:45;18.70;99.90
20102;DHT22;10210;52.284;9.892;2023-08-07T06:58:12;18.70;99.90
20102;DHT22;10210;52.284;9.892;2023-08-07T07:00:38;18.70;99.90
20102;DHT22;10210;52.284;9.892;2023-08-07T07:03:05;18.70;99.90
20102;DHT22;10210;52.284;9.892;2023-08-07T07:05:32;18.60;99.90
20102;DHT22;10210;52.284;9.892;2023-08-07T07:07:59;18.70;99.90
20102;DHT22;10210;52.284;9.892;2023-08-07T07:10:25;18.70;99.90
20102;DHT22;10210;52.284;9.892;2023-08-07T07:12:50;18.80;99.90
20102;DHT22;10210;52.284;9.892;2023-08-07T07:15:17;18.80;99.90
20102;DHT22;10210;52.284;9.892;2023-08-07T07:17:44;18.80;99.90
20102;DHT22;10210;52.284;9.892;2023-08-07T07:20:12;18.80;99.90
20102;DHT22;10210;52.284;9.892;2023-08-07T07:22:39;18.80;99.90
20102;DHT22;10210;52.284;9.892;2023-08-07T07:25:06;18.80;99.90
20102;DHT22;10210;52.284;9.892;2023-08-07T07:27:32;18.70;99.90
20102;DHT22;10210;52.284;9.892;2023-08-07T07:29:57;18.70;99.90
20102;DHT22;10210;52.284;9.892;2023-08-07T07:32:23;18.70;99.90
20102;DHT22;10210;52.284;9.892;2023-08-07T07:34:51;18.70;99.90
20102;DHT22;10210;52.284;9.892;2023-08-07T07:37:17;18.70;99.90
20102;DHT22;10210;52.284;9.892;2023-08-07T07:39:43;18.70;99.90
20102;DHT22;10210;52.284;9.892;2023-08-07T07:42:09;18.80;99.90
20102;DHT22;10210;52.284;9.892;2023-08-07T07:44:34;18.90;99.90
20102;DHT22;10210;52.284;9.892;2023-08-07T07:47:02;18.90;99.90
20102;DHT22;10210;52.284;9.892;2023-08-07T07:49:28;19.00;99.90
20102;DHT22;10210;52.284;9.892;2023-08-07T07:51:53;19.10;99.90
20102;DHT22;10210;52.284;9.892;2023-08-07T07:54:19;19.20;99.90
20102;DHT22;10210;52.284;9.892;2023-08-07T07:56:44;19.30;99.90
20102;DHT22;10210;52.284;9.892;2023-08-07T07:59:11;19.40;99.90
20102;DHT22;10210;52.284;9.892;2023-08-07T08:01:37;19.60;99.90
20102;DHT22;10210;52.284;9.892;2023-08-07T08:04:03;19.60;99.90
20102;DHT22;10210;52.284;9.892;2023-08-07T08:06:29;19.70;99.90
20102;DHT22;10210;52.284;9.892;2023-08-07T08:08:56;19.80;99.90
20102;DHT22;10210;52.284;9.892;2023-08-07T08:11:22;19.90;99.90
20102;DHT22;10210;52.284;9.892;2023-08-07T08:13:48;19.90;99.90
20102;DHT22;10210;52.284;9.892;2023-08-07T08:16:15;20.00;99.90
20102;DHT22;10210;52.284;9.892;2023-08-07T08:18:41;20.10;99.90
20102;DHT22;10210;52.284;9.892;2023-08-07T08:21:06;20.20;99.90
20102;DHT22;10210;52.284;9.892;2023-08-07T08:23:32;20.30;99.90
20102;DHT22;10210;52.284;9.892;2023-08-07T08:25:58;20.30;99.90
20102;DHT22;10210;52.284;9.892;2023-08-07T08:28:24;20.30;99.90
20102;DHT22;10210;52.284;9.892;2023-08-07T08:30:49;20.30;99.90
20102;DHT22;10210;52.284;9.892;2023-08-07T08:33:15;20.30;99.90
20102;DHT22;10210;52.284;9.892;2023-08-07T08:35:41;20.30;99.90
20102;DHT22;10210;52.284;9.892;2023-08-07T08:38:06;20.30;99.90
20102;DHT22;10210;52.284;9.892;2023-08-07T08:40:33;20.30;99.90
20102;DHT22;10210;52.284;9.892;2023-08-07T08:43:05;20.30;99.90
20102;DHT22;10210;52.284;9.892;2023-08-07T08:45:31;20.30;99.90
20102;DHT22;10210;52.284;9.892;2023-08-07T08:48:03;20.30;99.90
20102;DHT22;10210;52.284;9.892;2023-08-07T08:50:29;20.30;99.90
20102;DHT22;10210;52.284;9.892;2023-08-07T08:52:57;20.30;99.90
20102;DHT22;10210;52.284;9.892;2023-08-07T08:55:23;20.40;99.90
20102;DHT22;10210;52.284;9.892;2023-08-07T08:57:50;20.40;99.90
20102;DHT22;10210;52.284;9.892;2023-08-07T09:00:17;20.50;99.90
20102;DHT22;10210;52.284;9.892;2023-08-07T09:02:50;20.50;99.90
20102;DHT22;10210;52.284;9.892;2023-08-07T09:05:18;20.60;99.90
20102;DHT22;10210;52.284;9.892;2023-08-07T09:07:46;20.70;99.90
20102;DHT22;10210;52.284;9.892;2023-08-07T09:10:14;20.90;99.90
20102;DHT22;10210;52.284;9.892;2023-08-07T09:12:57;21.00;99.90
20102;DHT22;10210;52.284;9.892;2023-08-07T09:15:29;21.20;99.90
20102;DHT22;10210;52.284;9.892;2023-08-07T09:17:57;21.20;99.90
20102;DHT22;10210;52.284;9.892;2023-08-07T09:20:24;21.20;99.90
20102;DHT22;10210;52.284;9.892;2023-08-07T09:22:51;21.20;99.90
20102;DHT22;10210;52.284;9.892;2023-08-07T09:25:27;21.00;99.90
20102;DHT22;10210;52.284;9.892;2023-08-07T09:27:56;20.80;99.90
20102;DHT22;10210;52.284;9.892;2023-08-07T09:30:26;20.40;99.90
20102;DHT22;10210;52.284;9.892;2023-08-07T09:32:54;20.10;99.90
20102;DHT22;10210;52.284;9.892;2023-08-07T09:35:22;19.90;99.90
20102;DHT22;10210;52.284;9.892;2023-08-07T09:37:49;19.60;99.90
20102;DHT22;10210;52.284;9.892;2023-08-07T09:40:15;19.40;99.90
20102;DHT22;10210;52.284;9.892;2023-08-07T09:42:41;19.30;99.90
20102;DHT22;10210;52.284;9.892;2023-08-07T09:45:25;19.30;99.90
20102;DHT22;10210;52.284;9.892;2023-08-07T09:47:59;19.30;99.90
20102;DHT22;10210;52.284;9.892;2023-08-07T09:50:29;19.40;99.90
20102;DHT22;10210;52.284;9.892;2023-08-07T09:52:56;19.50;99.90
20102;DHT22;10210;52.284;9.892;2023-08-07T09:55:23;19.60;99.90
20102;DHT22;10210;52.284;9.892;2023-08-07T09:57:50;19.80;99.90
20102;DHT22;10210;52.284;9.892;2023-08-07T10:00:18;19.90;99.90
20102;DHT22;10210;52.284;9.892;2023-08-07T10:02:49;20.10;99.90
20102;DHT22;10210;52.284;9.892;2023-08-07T10:05:16;20.30;99.90
20102;DHT22;10210;52.284;9.892;2023-08-07T10:07:42;20.40;99.90
20102;DHT22;10210;52.284;9.892;2023-08-07T10:10:09;20.50;99.90
20102;DHT22;10210;52.284;9.892;2023-08-07T10:12:36;20.50;99.90
20102;DHT22;10210;52.284;9.892;2023-08-07T10:15:04;20.50;99.90
20102;DHT22;10210;52.284;9.892;2023-08-07T10:17:30;20.40;99.90
20102;DHT22;10210;52.284;9.892;2023-08-07T10:19:57;20.40;99.90
20102;DHT22;10210;52.284;9.892;2023-08-07T10:22:25;20.40;99.90
20102;DHT22;10210;52.284;9.892;2023-08-07T10:24:53;20.40;99.90
20102;DHT22;10210;52.284;9.892;2023-08-07T10:27:23;20.40;99.90
20102;DHT22;10210;52.284;9.892;2023-08-07T10:29:53;20.40;99.90
20102;DHT22;10210;52.284;9.892;2023-08-07T10:32:22;20.40;99.90
20102;DHT22;10210;52.284;9.892;2023-08-07T10:34:50;20.40;99.90
20102;DHT22;10210;52.284;9.892;2023-08-07T10:37:41;20.50;99.90
20102;DHT22;10210;52.284;9.892;2023-08-07T10:40:11;20.60;99.90
20102;DHT22;10210;52.284;9.892;2023-08-07T10:43:11;20.70;99.90
20102;DHT22;10210;52.284;9.892;2023-08-07T10:45:41;20.90;99.90
20102;DHT22;10210;52.284;9.892;2023-08-07T10:48:10;21.00;99.90
20102;DHT22;10210;52.284;9.892;2023-08-07T10:51:03;21.10;99.90
20102;DHT22;10210;52.284;9.892;2023-08-07T10:53:37;21.20;99.90
20102;DHT22;10210;52.284;9.892;2023-08-07T10:56:09;21.30;99.90
20102;DHT22;10210;52.284;9.892;2023-08-07T10:58:40;21.30;99.90
20102;DHT22;10210;52.284;9.892;2023-08-07T11:01:20;21.40;99.90
20102;DHT22;10210;52.284;9.892;2023-08-07T11:04:13;21.40;99.90
20102;DHT22;10210;52.284;9.892;2023-08-07T11:06:41;21.40;99.90
20102;DHT22;10210;52.284;9.892;2023-08-07T11:09:09;21.40;99.90
20102;DHT22;10210;52.284;9.892;2023-08-07T11:11:43;21.40;99.90
20102;DHT22;10210;52.284;9.892;2023-08-07T11:14:18;21.40;99.90
20102;DHT22;10210;52.284;9.892;2023-08-07T11:16:47;21.50;99.90
20102;DHT22;10210;52.284;9.892;2023-08-07T11:19:15;21.60;99.90
20102;DHT22;10210;52.284;9.892;2023-08-07T11:21:44;21.70;99.90
20102;DHT22;10210;52.284;9.892;2023-08-07T11:24:13;21.80;99.90
20102;DHT22;10210;52.284;9.892;2023-08-07T11:26:39;21.80;99.90
20102;DHT22;10210;52.284;9.892;2023-08-07T11:29:05;22.00;99.90
20102;DHT22;10210;52.284;9.892;2023-08-07T11:31:30;22.00;99.90
20102;DHT22;10210;52.284;9.892;2023-08-07T11:33:57;22.10;99.90
20102;DHT22;10210;52.284;9.892;2023-08-07T11:36:24;22.20;99.90
20102;DHT22;10210;52.284;9.892;2023-08-07T11:38:50;22.30;99.90
20102;DHT22;10210;52.284;9.892;2023-08-07T11:41:17;22.30;99.90
20102;DHT22;10210;52.284;9.892;2023-08-07T11:43:45;22.40;99.90
20102;DHT22;10210;52.284;9.892;2023-08-07T11:46:12;22.30;99.90
20102;DHT22;10210;52.284;9.892;2023-08-07T11:48:41;22.30;99.90
20102;DHT22;10210;52.284;9.892;2023-08-07T11:51:08;22.20;99.90
20102;DHT22;10210;52.284;9.892;2023-08-07T11:53:36;22.10;99.90
20102;DHT22;10210;52.284;9.892;2023-08-07T11:56:13;22.00;99.90
20102;DHT22;10210;52.284;9.892;2023-08-07T11:58:44;21.80;99.90
20102;DHT22;10210;52.284;9.892;2023-08-07T12:01:13;21.70;99.90
20102;DHT22;10210;52.284;9.892;2023-08-07T12:03:50;21.60;99.90
20102;DHT22;10210;52.284;9.892;2023-08-07T12:06:16;21.50;99.90
20102;DHT22;10210;52.284;9.892;2023-08-07T12:08:42;21.40;99.90
20102;DHT22;10210;52.284;9.892;2023-08-07T12:11:12;21.20;99.90
20102;DHT22;10210;52.284;9.892;2023-08-07T12:13:40;21.20;99.90
20102;DHT22;10210;52.284;9.892;2023-08-07T12:16:08;21.10;99.90
20102;DHT22;10210;52.284;9.892;2023-08-07T12:18:35;21.10;99.90
20102;DHT22;10210;52.284;9.892;2023-08-07T12:21:04;21.10;99.90
20102;DHT22;10210;52.284;9.892;2023-08-07T12:23:36;21.20;99.90
20102;DHT22;10210;52.284;9.892;2023-08-07T12:26:03;21.20;99.90
20102;DHT22;10210;52.284;9.892;2023-08-07T12:28:34;21.30;99.90
20102;DHT22;10210;52.284;9.892;2023-08-07T12:31:01;21.40;99.90
20102;DHT22;10210;52.284;9.892;2023-08-07T12:33:28;21.50;99.90
20102;DHT22;10210;52.284;9.892;2023-08-07T12:35:53;21.70;99.90
20102;DHT22;10210;52.284;9.892;2023-08-07T12:38:19;21.80;99.90
20102;DHT22;10210;52.284;9.892;2023-08-07T12:40:47;21.90;99.90
20102;DHT22;10210;52.284;9.892;2023-08-07T12:43:12;21.80;99.90
20102;DHT22;10210;52.284;9.892;2023-08-07T12:45:38;21.80;99.90
20102;DHT22;10210;52.284;9.892;2023-08-07T12:48:04;21.60;99.90
20102;DHT22;10210;52.284;9.892;2023-08-07T12:50:30;21.40;99.90
20102;DHT22;10210;52.284;9.892;2023-08-07T12:52:56;21.10;99.90
20102;DHT22;10210;52.284;9.892;2023-08-07T12:55:23;21.00;99.90
20102;DHT22;10210;52.284;9.892;2023-08-07T12:57:52;20.80;99.90
20102;DHT22;10210;52.284;9.892;2023-08-07T13:00:20;20.70;99.90
20102;DHT22;10210;52.284;9.892;2023-08-07T13:02:48;20.60;99.90
20102;DHT22;10210;52.284;9.892;2023-08-07T13:05:16;20.60;99.90
20102;DHT22;10210;52.284;9.892;2023-08-07T13:07:43;20.70;99.90
20102;DHT22;10210;52.284;9.892;2023-08-07T13:10:12;20.70;99.90
20102;DHT22;10210;52.284;9.892;2023-08-07T13:12:44;20.70;99.90
20102;DHT22;10210;52.284;9.892;2023-08-07T13:15:14;20.70;99.90
20102;DHT22;10210;52.284;9.892;2023-08-07T13:17:42;20.80;99.90
20102;DHT22;10210;52.284;9.892;2023-08-07T13:20:09;20.90;99.90
20102;DHT22;10210;52.284;9.892;2023-08-07T13:22:43;20.90;99.90
20102;DHT22;10210;52.284;9.892;2023-08-07T13:25:11;21.00;99.90
20102;DHT22;10210;52.284;9.892;2023-08-07T13:27:38;21.10;99.90
20102;DHT22;10210;52.284;9.892;2023-08-07T13:30:05;21.30;99.90
20102;DHT22;10210;52.284;9.892;2023-08-07T13:32:33;21.40;99.90
20102;DHT22;10210;52.284;9.892;2023-08-07T13:35:01;21.50;99.90
20102;DHT22;10210;52.284;9.892;2023-08-07T13:37:28;21.60;99.90
20102;DHT22;10210;52.284;9.892;2023-08-07T13:39:54;21.70;99.90
20102;DHT22;10210;52.284;9.892;2023-08-07T13:42:23;21.70;99.90
20102;DHT22;10210;52.284;9.892;2023-08-07T13:44:53;21.70;99.90
20102;DHT22;10210;52.284;9.892;2023-08-07T13:47:21;21.70;99.90
20102;DHT22;10210;52.284;9.892;2023-08-07T13:49:46;21.80;99.90
20102;DHT22;10210;52.284;9.892;2023-08-07T13:52:13;21.80;99.90
20102;DHT22;10210;52.284;9.892;2023-08-07T13:54:39;21.80;99.90
20102;DHT22;10210;52.284;9.892;2023-08-07T13:57:07;21.80;99.90
20102;DHT22;10210;52.284;9.892;2023-08-07T13:59:32;21.80;99.90
20102;DHT22;10210;52.284;9.892;2023-08-07T14:01:59;21.70;99.90
20102;DHT22;10210;52.284;9.892;2023-08-07T14:04:25;21.70;99.90
20102;DHT22;10210;52.284;9.892;2023-08-07T14:06:51;21.70;99.90
20102;DHT22;10210;52.284;9.892;2023-08-07T14:09:17;21.70;99.90
20102;DHT22;10210;52.284;9.892;2023-08-07T14:11:47;21.70;99.90
20102;DHT22;10210;52.284;9.892;2023-08-07T14:14:15;21.70;99.90
20102;DHT22;10210;52.284;9.892;2023-08-07T14:16:40;21.70;99.90
20102;DHT22;10210;52.284;9.892;2023-08-07T14:19:06;21.70;99.90
20102;DHT22;10210;52.284;9.892;2023-08-07T14:21:32;21.70;99.90
20102;DHT22;10210;52.284;9.892;2023-08-07T14:23:57;21.70;99.90
20102;DHT22;10210;52.284;9.892;2023-08-07T14:26:23;21.70;99.90
20102;DHT22;10210;52.284;9.892;2023-08-07T14:28:49;21.70;99.90
20102;DHT22;10210;52.284;9.892;2023-08-07T14:31:15;21.70;99.90
20102;DHT22;10210;52.284;9.892;2023-08-07T14:33:40;21.70;99.90
20102;DHT22;10210;52.284;9.892;2023-08-07T14:36:06;21.70;99.90
20102;DHT22;10210;52.284;9.892;2023-08-07T14:38:32;21.70;99.90
20102;DHT22;10210;52.284;9.892;2023-08-07T14:40:58;21.70;99.90
20102;DHT22;10210;52.284;9.892;2023-08-07T14:43:26;21.80;99.90
20102;DHT22;10210;52.284;9.892;2023-08-07T14:45:54;21.80;99.90
20102;DHT22;10210;52.284;9.892;2023-08-07T14:48:20;21.90;99.90
20102;DHT22;10210;52.284;9.892;2023-08-07T14:50:46;21.90;99.90
20102;DHT22;10210;52.284;9.892;2023-08-07T14:53:11;21.90;99.90
20102;DHT22;10210;52.284;9.892;2023-08-07T14:55:37;21.90;99.90
20102;DHT22;10210;52.284;9.892;2023-08-07T14:58:03;21.90;99.90
20102;DHT22;10210;52.284;9.892;2023-08-07T15:00:32;21.90;99.90
20102;DHT22;10210;52.284;9.892;2023-08-07T15:02:58;21.90;99.90
20102;DHT22;10210;52.284;9.892;2023-08-07T15:05:23;21.90;99.90
20102;DHT22;10210;52.284;9.892;2023-08-07T15:07:49;21.90;99.90
20102;DHT22;10210;52.284;9.892;2023-08-07T15:10:15;22.00;99.90
20102;DHT22;10210;52.284;9.892;2023-08-07T15:12:40;22.00;99.90
20102;DHT22;10210;52.284;9.892;2023-08-07T15:15:06;21.90;99.90
20102;DHT22;10210;52.284;9.892;2023-08-07T15:17:32;22.00;99.90
20102;DHT22;10210;52.284;9.892;2023-08-07T15:19:58;21.90;99.90
20102;DHT22;10210;52.284;9.892;2023-08-07T15:22:24;22.00;99.90
20102;DHT22;10210;52.284;9.892;2023-08-07T15:24:49;22.00;99.90
20102;DHT22;10210;52.284;9.892;2023-08-07T15:27:15;22.00;99.90
20102;DHT22;10210;52.284;9.892;2023-08-07T15:29:44;21.90;99.90
20102;DHT22;10210;52.284;9.892;2023-08-07T15:32:11;21.90;99.90
20102;DHT22;10210;52.284;9.892;2023-08-07T15:34:39;21.80;99.90
20102;DHT22;10210;52.284;9.892;2023-08-07T15:37:05;21.80;99.90
20102;DHT22;10210;52.284;9.892;2023-08-07T15:39:31;21.70;99.90